SAS925 EKCH-KIAD
Flight info
| Callsign | SAS925 |
|---|---|
| Flight time | N/A |
| Altitude | 38000 |
| Route | GOLGA3A GOLGA DCT KRM DCT VALDI/M085F380 DCT 62N010W 61N020W/M084F400 5930N03000W 58N040W 5530N05000W DCT KODIK/N0489F400 DCT ANCER DCT ART DCT PSB WAYNZ1 |
| Aircraft | A359/H-SDE2E3GHIJ3J4J5LM1ORWXY/LB1D1 |
Departure
| Time | 2026-05-07 12:03 |
|---|---|
| Airport | Copenhagen Kastrup Airport (EKCH) |
Arrival
| Time | N/A |
|---|---|
| Airport | Washington Dulles International Airport (KIAD) |
| Time | Latitude | Longitude | Altitude | Speed | Heading |
|---|---|---|---|---|---|
| 2026-05-07 11:32 | 55.62432 | 12.65061 | 9 ft | 0 kts | 268° |
| 2026-05-07 11:51 | 55.62432 | 12.65039 | 31 ft | 0 kts | 268° |
| 2026-05-07 11:51 | 55.62432 | 12.65035 | 31 ft | 1 kts | 268° |
| 2026-05-07 11:52 | 55.62432 | 12.65076 | 29 ft | 4 kts | 268° |
| 2026-05-07 11:52 | 55.62433 | 12.65124 | 28 ft | 4 kts | 269° |
| 2026-05-07 11:52 | 55.62434 | 12.65164 | 28 ft | 4 kts | 245° |
| 2026-05-07 11:52 | 55.62440 | 12.65184 | 31 ft | 4 kts | 194° |
| 2026-05-07 11:53 | 55.62465 | 12.65187 | 31 ft | 3 kts | 178° |
| 2026-05-07 11:53 | 55.62486 | 12.65186 | 30 ft | 4 kts | 179° |
| 2026-05-07 11:53 | 55.62513 | 12.65184 | 28 ft | 4 kts | 179° |
| 2026-05-07 11:53 | 55.62511 | 12.65184 | 28 ft | 0 kts | 179° |
| 2026-05-07 11:55 | 55.62486 | 12.65189 | 29 ft | 10 kts | 172° |
| 2026-05-07 11:55 | 55.62393 | 12.65202 | 30 ft | 16 kts | 176° |
| 2026-05-07 11:56 | 55.62300 | 12.65200 | 30 ft | 13 kts | 181° |
| 2026-05-07 11:56 | 55.62205 | 12.65170 | 30 ft | 15 kts | 204° |
| 2026-05-07 11:56 | 55.62115 | 12.65069 | 30 ft | 16 kts | 214° |
| 2026-05-07 11:56 | 55.62018 | 12.64957 | 30 ft | 17 kts | 213° |
| 2026-05-07 11:57 | 55.61912 | 12.64835 | 30 ft | 19 kts | 212° |
| 2026-05-07 11:57 | 55.61798 | 12.64704 | 30 ft | 20 kts | 213° |
| 2026-05-07 11:57 | 55.61677 | 12.64566 | 30 ft | 21 kts | 213° |
| 2026-05-07 11:57 | 55.61549 | 12.64420 | 30 ft | 22 kts | 213° |
| 2026-05-07 11:58 | 55.61416 | 12.64266 | 30 ft | 24 kts | 213° |
| 2026-05-07 11:58 | 55.61275 | 12.64103 | 30 ft | 25 kts | 213° |
| 2026-05-07 11:58 | 55.61129 | 12.63935 | 30 ft | 26 kts | 213° |
| 2026-05-07 11:58 | 55.60986 | 12.63771 | 30 ft | 23 kts | 213° |
| 2026-05-07 11:59 | 55.60847 | 12.63613 | 30 ft | 24 kts | 213° |
| 2026-05-07 11:59 | 55.60704 | 12.63449 | 30 ft | 20 kts | 214° |
| 2026-05-07 11:59 | 55.60609 | 12.63320 | 30 ft | 18 kts | 220° |
| 2026-05-07 11:59 | 55.60515 | 12.63174 | 30 ft | 14 kts | 220° |
| 2026-05-07 12:00 | 55.60441 | 12.63133 | 30 ft | 11 kts | 168° |
| 2026-05-07 12:00 | 55.60377 | 12.63216 | 30 ft | 12 kts | 134° |
| 2026-05-07 12:00 | 55.60349 | 12.63325 | 32 ft | 8 kts | 90° |
| 2026-05-07 12:00 | 55.60373 | 12.63396 | 32 ft | 8 kts | 43° |
| 2026-05-07 12:01 | 55.60382 | 12.63410 | 31 ft | 0 kts | 41° |
| 2026-05-07 12:02 | 55.60384 | 12.63413 | 31 ft | 4 kts | 40° |
| 2026-05-07 12:02 | 55.60534 | 12.63647 | 30 ft | 61 kts | 40° |
| 2026-05-07 12:02 | 55.61008 | 12.64382 | 29 ft | 119 kts | 41° |
| 2026-05-07 12:02 | 55.61751 | 12.65550 | 91 ft | 162 kts | 40° |
| 2026-05-07 12:03 | 55.62624 | 12.66892 | 633 ft | 168 kts | 39° |
| 2026-05-07 12:03 | 55.63531 | 12.68220 | 1378 ft | 169 kts | 37° |
| 2026-05-07 12:03 | 55.64477 | 12.69545 | 1788 ft | 185 kts | 35° |
| 2026-05-07 12:03 | 55.65724 | 12.70378 | 2089 ft | 202 kts | 3° |
| 2026-05-07 12:04 | 55.67153 | 12.70299 | 2619 ft | 211 kts | 356° |
| 2026-05-07 12:04 | 55.68698 | 12.70097 | 2940 ft | 233 kts | 356° |
| 2026-05-07 12:04 | 55.70356 | 12.69900 | 3525 ft | 242 kts | 356° |
| 2026-05-07 12:04 | 55.72048 | 12.69711 | 4208 ft | 247 kts | 356° |
| 2026-05-07 12:05 | 55.73766 | 12.69288 | 4900 ft | 252 kts | 345° |
| 2026-05-07 12:05 | 55.75401 | 12.68129 | 5616 ft | 256 kts | 333° |
| 2026-05-07 12:05 | 55.76892 | 12.66356 | 6366 ft | 260 kts | 322° |
| 2026-05-07 12:05 | 55.78280 | 12.64268 | 7086 ft | 264 kts | 319° |
| 2026-05-07 12:06 | 55.79656 | 12.62064 | 7825 ft | 268 kts | 319° |
| 2026-05-07 12:06 | 55.81037 | 12.59790 | 8591 ft | 272 kts | 318° |
| 2026-05-07 12:06 | 55.82426 | 12.57469 | 9373 ft | 276 kts | 318° |
| 2026-05-07 12:06 | 55.83826 | 12.55112 | 10134 ft | 281 kts | 318° |
| 2026-05-07 12:07 | 55.85238 | 12.52724 | 10621 ft | 295 kts | 317° |
| 2026-05-07 12:07 | 55.86752 | 12.50158 | 10988 ft | 312 kts | 317° |
| 2026-05-07 12:07 | 55.88366 | 12.47414 | 11351 ft | 329 kts | 317° |
| 2026-05-07 12:07 | 55.90063 | 12.44525 | 11732 ft | 345 kts | 316° |
| 2026-05-07 12:08 | 55.91829 | 12.41510 | 12225 ft | 356 kts | 316° |
| 2026-05-07 12:08 | 55.93635 | 12.38422 | 12889 ft | 362 kts | 316° |
| 2026-05-07 12:08 | 55.95461 | 12.35293 | 13581 ft | 366 kts | 315° |
| 2026-05-07 12:08 | 55.97307 | 12.32128 | 14239 ft | 370 kts | 315° |
| 2026-05-07 12:09 | 55.99171 | 12.28931 | 14880 ft | 373 kts | 315° |
| 2026-05-07 12:09 | 56.01045 | 12.25708 | 15526 ft | 376 kts | 315° |
| 2026-05-07 12:09 | 56.02945 | 12.22438 | 16131 ft | 380 kts | 315° |
| 2026-05-07 12:09 | 56.04855 | 12.19144 | 16755 ft | 383 kts | 315° |
| 2026-05-07 12:10 | 56.06781 | 12.15819 | 17421 ft | 386 kts | 315° |
| 2026-05-07 12:10 | 56.08286 | 12.13218 | 17945 ft | 388 kts | 314° |